Spring Arbor, MI (49283)

7:41 AM EST on December 20, 2014 (GMT -0500)
Spring Arbor | Change Station
CLOSE
Current Station
Personal Weather Station
Location: Jackson, MI
Elevation: 1014 ft
Nearby Weather Stations

Elev 1014 ft 42.24 °N, 84.50 °W | Updated 9 minutes ago

Overcast
Overcast
25.3 °F
Feels Like 25 °F
N
0.0
Wind Variable Wind from NW
Gusts 2.0 mph

Today
High -- | Low -- °F
--% Chance of Precip.
Yesterday
High -- | Low -- °F
Precip. -- in
8:03 AM 5:08 PM
Waning Crescent, 3% visible
Pressure 30.31 in
Visibility 10.0 miles
Clouds Overcast 2000 ft
Windchill 25 °F
Dew Point 23 °F
Humidity 92%
Rainfall 0.00 in
Snow Depth Not available.
UV 0 out of 12
Pollen .10 out of 12
Air Quality Not available.
Flu Activity Not available.
METAR KJXN 201156Z 00000KT 10SM OVC020 M03/M06 A3026 RMK AO2 SLP262 I6000 T10331056 11033 21072 58001

More Conditions Fewer Conditions

Pressure 30.31 in
Visibility 10.0 miles
Clouds Overcast 2000 ft
Windchill 25 °F
Dew Point 23 °F
Humidity 92%
Rainfall 0.00 in
Snow Depth Not available.
UV 0 out of 12
Pollen .10 out of 12
Air Quality Not available.
Flu Activity Not available.
METAR KJXN 201156Z 00000KT 10SM OVC020 M03/M06 A3026 RMK AO2 SLP262 I6000 T10331056 11033 21072 58001

More Conditions Fewer Conditions

10-Day Weather Forecast

Almanac

Astronomy

Dec. 20, 2014 Rise Set
Actual Time
Civil Twilight
Nautical Twilight
Astronomical Twilight
Moon
Length of Visible Light
Length of Day
Tomorrow will be .
, % of the Moon is Illuminated

Today's Extremes

State Highs State Lows

Community

WunderPhotos

Upload Photos

1,779,163 photos uploaded!

WunderBlogs® & News

Nearby

Air Quality

  Air Quality AQ Index Pollutant
Not available.

Snow Depth

Station Depth Elevation

Earthquake Activity

City Distance Mag. Time & Date
Minimum magnitude displayed is 2.5.

Coastal Water Temperatures

Place Temperature

Nearby Weather Stations